ADDS TAF Board (Experimental) INFO

IDs: Format: Expanded Condensed

Updated at: 0621 UTC 22 Oct 2014

KMDW - Chicago/Midway Intl, IL, US

Issued at 0530 UTC 22 Oct 2014
Time0553Z22/07Z22/08Z22/09Z22/10Z22/11Z22/12Z22/13Z22/14Z22/15Z22/16Z22/17Z22/18Z22/19Z
TypeOBSPRVLPRVLPRVLPRVLPRVLPRVLPRVLPRVLPRVLPRVLPRVLPRVLPRVL
VIS10>6>6>6>6>6>6>6>6>6>6>6>6>6
CIG3130------------------------
CoverOVCBKNSCTSCTSCTSCTSCTSCTSKCSKCSKCSKCSKCSKC
FltCat--MVFRVFRVFRVFRVFRVFRVFRVFRVFRVFRVFRVFRVFR
WX----------------------------
WDir40605050505050501201201201208080
WSpd45444444666677
WGst----------------------------
R04/22
XWnd0-1-0-0-0-0-0-0-6-6-6-6-4-4
HWnd45444444111166
R13/31
XWnd45444444111166
HWnd-01000000666644
Raw TAF
KMDW 220530Z 2206/2306 06005KT P6SM BKN030
  FM220800 05004KT P6SM SCT035
  FM221400 12006KT P6SM SKC
  FM221800 08007KT P6SM SKC
  FM230200 15004KT P6SM FEW250


Raw METAR
KMDW 220553Z 04004KT 10SM OVC031 11/05 A3025 RMK AO2 SLP245 T01060050 10106 20094 401220094 55002

TAF Board Legend

Hazard VFR MVFR IFR LIFR
Visibility (sm) >5 3≤X≤5 1≤X<3 <1
Ceiling (100 ft) >30 10≤X≤30 5≤X<10 <5
Wind Speed (kt) <10 10≤X<20 20≤X<30 ≥30
Wind Gust (kt) <15 15≤X<25 25≤X<35 ≥35
Weather No Wx Reported VCTS,-TS,-FZRA TS,FZRA +TS,+FZRA


Page loaded:  06:21 UTC  |   11:21 PM Pacific  |   12:21 AM Mountain  |   01:21 AM Central  |   02:21 AM Eastern

 

ADVISORIES

FORECASTS

FORECASTS

OBSERVATIONS

USER TOOLS

ABOUT US